Time;durP1;ratioP1;P1;durP2;ratioP2;P2;SDS_P1;SDS_P2;PMS_P1;PMS_P2;Temp;Humidity;BMP_temperature;BMP_pressure;BME280_temperature;BME280_humidity;BME280_pressure;Samples;Min_cycle;Max_cycle;Signal;HPM_P1;HPM_P2
2022/11/25 00:01:32;;;;;;;7.20;5.00;;;;;;;;;;5010394;28;20659;-79
2022/11/25 00:04:00;;;;;;;7.93;5.03;;;;;;;;;;4993690;28;20232;-79
2022/11/25 00:06:28;;;;;;;13.17;5.37;;;;;;;;;;5000505;28;20227;-79
2022/11/25 00:08:56;;;;;;;7.47;4.57;;;;;;;;;;5012840;28;20222;-79
2022/11/25 00:11:23;;;;;;;6.20;4.80;;;;;;;;;;5004515;28;20289;-79
2022/11/25 00:13:52;;;;;;;7.47;4.80;;;;;;;;;;5013225;28;20207;-79
2022/11/25 00:16:19;;;;;;;12.33;5.87;;;;;;;;;;5012648;28;20235;-79
2022/11/25 00:18:47;;;;;;;9.97;4.60;;;;;;;;;;5012617;28;20210;-79
2022/11/25 00:21:15;;;;;;;5.63;4.33;;;;;;;;;;5012028;28;20598;-79
2022/11/25 00:23:42;;;;;;;11.53;4.90;;;;;;;;;;5012436;28;20204;-79
2022/11/25 00:26:10;;;;;;;16.83;5.07;;;;;;;;;;5012413;28;20246;-79
2022/11/25 00:28:37;;;;;;;7.00;4.90;;;;;;;;;;5013196;28;20211;-79
2022/11/25 00:31:09;;;;;;;10.23;5.17;;;;;;;;;;5013206;28;20231;-80
2022/11/25 00:33:36;;;;;;;10.07;4.97;;;;;;;;;;5013744;28;20222;-77
2022/11/25 00:36:03;;;;;;;12.07;5.10;;;;;;;;;;5013676;28;20235;-78
2022/11/25 00:38:30;;;;;;;11.10;4.93;;;;;;;;;;5021248;28;20203;-77
2022/11/25 00:46:21;;;;;;;8.03;4.57;;;;;;;;;;4989359;28;20242;-78
2022/11/25 00:48:48;;;;;;;12.70;5.40;;;;;;;;;;5012355;28;20210;-78
2022/11/25 00:51:15;;;;;;;9.67;5.27;;;;;;;;;;5011092;28;20251;-78
2022/11/25 00:53:42;;;;;;;6.87;4.20;;;;;;;;;;5012665;28;20222;-78
2022/11/25 00:56:15;;;;;;;7.53;4.70;;;;;;;;;;5011912;28;20235;-78
2022/11/25 00:58:44;;;;;;;7.70;4.97;;;;;;;;;;5012206;28;20211;-78
2022/11/25 01:01:11;;;;;;;9.47;4.77;;;;;;;;;;5011723;28;20722;-78
2022/11/25 01:03:39;;;;;;;9.17;5.07;;;;;;;;;;5003504;28;20208;-78
2022/11/25 01:06:07;;;;;;;6.97;5.20;;;;;;;;;;5008114;28;20697;-78
2022/11/25 01:08:37;;;;;;;10.40;5.27;;;;;;;;;;5016203;28;20218;-78
2022/11/25 01:11:05;;;;;;;15.13;6.13;;;;;;;;;;5015336;28;20243;-78
2022/11/25 01:13:32;;;;;;;9.13;5.13;;;;;;;;;;5004540;28;20300;-78
2022/11/25 01:16:01;;;;;;;11.50;5.37;;;;;;;;;;4996115;28;20231;-78
2022/11/25 01:18:28;;;;;;;11.13;5.33;;;;;;;;;;4996493;28;20214;-78
2022/11/25 01:21:05;;;;;;;13.57;5.73;;;;;;;;;;5007165;28;20246;-78
2022/11/25 01:23:32;;;;;;;8.00;5.20;;;;;;;;;;5016112;28;20188;-78
2022/11/25 01:26:01;;;;;;;9.67;4.93;;;;;;;;;;5015293;28;20246;-78
2022/11/25 01:28:28;;;;;;;14.50;5.50;;;;;;;;;;5015556;28;20210;-78
2022/11/25 01:30:59;;;;;;;8.83;5.10;;;;;;;;;;5027906;23;20285;-80
2022/11/25 01:33:27;;;;;;;5.20;4.70;;;;;;;;;;5015237;28;20207;-80
2022/11/25 01:35:54;;;;;;;9.80;5.00;;;;;;;;;;5014719;28;20318;-80
2022/11/25 01:38:22;;;;;;;12.17;5.07;;;;;;;;;;5014083;28;20200;-80
2022/11/25 01:40:49;;;;;;;6.83;4.60;;;;;;;;;;5011059;28;20327;-80
2022/11/25 01:43:16;;;;;;;9.27;4.57;;;;;;;;;;5014926;28;20218;-80
2022/11/25 01:45:43;;;;;;;5.50;4.20;;;;;;;;;;5013841;28;20239;-80
2022/11/25 01:48:13;;;;;;;14.87;5.00;;;;;;;;;;5014689;28;20207;-79
2022/11/25 01:50:42;;;;;;;12.30;4.90;;;;;;;;;;5013777;28;20235;-79
2022/11/25 01:53:11;;;;;;;7.93;5.00;;;;;;;;;;5012558;28;20203;-79
2022/11/25 01:55:42;;;;;;;14.27;4.87;;;;;;;;;;5014342;28;20239;-79
2022/11/25 01:58:11;;;;;;;6.23;4.67;;;;;;;;;;5012898;28;20294;-79
2022/11/25 02:00:38;;;;;;;14.90;5.53;;;;;;;;;;5012923;28;20234;-79
2022/11/25 02:03:06;;;;;;;7.23;4.53;;;;;;;;;;5010813;28;20587;-79
2022/11/25 02:05:37;;;;;;;11.43;5.43;;;;;;;;;;5012230;28;20731;-79
2022/11/25 02:08:05;;;;;;;11.07;5.90;;;;;;;;;;4998971;28;20630;-79
2022/11/25 02:10:33;;;;;;;10.80;5.77;;;;;;;;;;5014268;28;20263;-80
2022/11/25 02:13:01;;;;;;;10.93;6.07;;;;;;;;;;5014740;28;20284;-79
2022/11/25 02:15:29;;;;;;;14.47;6.13;;;;;;;;;;5013087;28;20310;-80
2022/11/25 02:17:56;;;;;;;9.10;7.07;;;;;;;;;;4994028;28;20242;-79
2022/11/25 02:20:24;;;;;;;9.80;6.03;;;;;;;;;;4994584;28;20312;-80
2022/11/25 02:22:55;;;;;;;11.47;6.00;;;;;;;;;;4995108;28;20234;-79
2022/11/25 02:25:25;;;;;;;10.10;7.27;;;;;;;;;;4997670;28;20243;-80
2022/11/25 02:27:55;;;;;;;10.07;5.50;;;;;;;;;;5005704;28;20317;-80
2022/11/25 02:30:22;;;;;;;14.37;6.73;;;;;;;;;;5014061;28;20281;-80
2022/11/25 02:32:49;;;;;;;6.90;5.90;;;;;;;;;;5014105;28;20327;-79
2022/11/25 02:35:27;;;;;;;7.70;5.83;;;;;;;;;;5012557;28;20212;-80
2022/11/25 02:37:55;;;;;;;8.50;6.13;;;;;;;;;;5014173;28;20203;-79
2022/11/25 02:40:24;;;;;;;11.63;5.57;;;;;;;;;;5013837;28;20231;-79
2022/11/25 02:42:51;;;;;;;7.40;5.50;;;;;;;;;;5013928;28;20283;-80
2022/11/25 02:45:20;;;;;;;8.70;5.73;;;;;;;;;;5012502;28;20226;-80
2022/11/25 02:47:47;;;;;;;10.83;6.23;;;;;;;;;;5013024;28;20230;-79
2022/11/25 02:50:15;;;;;;;8.50;5.90;;;;;;;;;;5007323;28;20208;-80
2022/11/25 02:52:44;;;;;;;18.37;6.63;;;;;;;;;;5011393;28;20238;-79
2022/11/25 02:55:11;;;;;;;19.07;7.13;;;;;;;;;;5012807;28;20603;-79
2022/11/25 02:57:39;;;;;;;13.07;6.40;;;;;;;;;;5005435;28;20203;-79
2022/11/25 03:00:07;;;;;;;10.30;7.00;;;;;;;;;;5013275;28;20211;-80
2022/11/25 03:02:34;;;;;;;9.43;6.87;;;;;;;;;;5013276;28;20249;-79
2022/11/25 03:05:01;;;;;;;11.23;7.20;;;;;;;;;;5013041;28;20227;-80
2022/11/25 03:07:29;;;;;;;16.13;6.87;;;;;;;;;;5005552;28;20680;-80
2022/11/25 03:09:56;;;;;;;14.23;6.80;;;;;;;;;;4993906;28;20207;-79
2022/11/25 03:12:23;;;;;;;13.20;7.00;;;;;;;;;;4993435;28;20240;-79
2022/11/25 03:14:51;;;;;;;18.97;7.83;;;;;;;;;;4993894;28;20551;-79
2022/11/25 03:17:18;;;;;;;15.13;7.57;;;;;;;;;;5009402;28;20253;-79
2022/11/25 03:19:45;;;;;;;15.77;7.30;;;;;;;;;;5013327;28;20226;-79
2022/11/25 03:22:12;;;;;;;15.83;7.50;;;;;;;;;;5012642;28;20243;-79
2022/11/25 03:24:39;;;;;;;14.37;7.10;;;;;;;;;;5013135;28;20596;-79
2022/11/25 03:27:07;;;;;;;14.70;7.60;;;;;;;;;;5011762;28;20252;-79
2022/11/25 03:29:34;;;;;;;13.03;7.17;;;;;;;;;;5012867;28;20214;-79
2022/11/25 03:32:02;;;;;;;9.93;6.80;;;;;;;;;;5012682;28;20238;-79
2022/11/25 03:34:29;;;;;;;18.50;7.53;;;;;;;;;;5012153;28;20214;-79
2022/11/25 03:36:57;;;;;;;11.63;6.60;;;;;;;;;;5012570;28;20248;-79
2022/11/25 03:39:24;;;;;;;14.43;7.17;;;;;;;;;;5012792;28;20588;-79
2022/11/25 03:41:51;;;;;;;12.37;7.37;;;;;;;;;;5012524;28;20243;-80
2022/11/25 03:44:18;;;;;;;14.77;7.20;;;;;;;;;;5012251;28;20574;-79
2022/11/25 03:46:46;;;;;;;12.93;7.47;;;;;;;;;;5012279;28;20234;-79
2022/11/25 03:49:14;;;;;;;20.23;7.40;;;;;;;;;;5012522;28;20683;-79
2022/11/25 03:51:41;;;;;;;15.40;7.60;;;;;;;;;;5011603;28;20234;-79
2022/11/25 03:54:08;;;;;;;11.70;6.97;;;;;;;;;;5011711;28;20210;-79
2022/11/25 03:56:35;;;;;;;10.30;6.57;;;;;;;;;;5011965;28;20227;-79
2022/11/25 03:59:02;;;;;;;11.07;7.17;;;;;;;;;;5012380;28;20199;-79
2022/11/25 04:01:29;;;;;;;12.33;7.93;;;;;;;;;;5008282;28;20239;-79
2022/11/25 04:03:56;;;;;;;14.60;8.37;;;;;;;;;;4995559;28;20211;-79
2022/11/25 04:06:25;;;;;;;12.80;7.93;;;;;;;;;;5007074;28;20235;-79
2022/11/25 04:08:52;;;;;;;14.73;7.40;;;;;;;;;;5012327;28;20578;-79
2022/11/25 04:11:19;;;;;;;12.83;8.77;;;;;;;;;;5008226;28;20238;-79
2022/11/25 04:13:45;;;;;;;14.17;7.63;;;;;;;;;;5010567;28;20643;-79
2022/11/25 04:16:19;;;;;;;11.27;8.07;;;;;;;;;;5002257;28;20231;-79
2022/11/25 04:18:46;;;;;;;14.10;6.97;;;;;;;;;;5012054;28;20790;-79
2022/11/25 04:21:13;;;;;;;12.30;7.90;;;;;;;;;;5011937;28;20243;-79
2022/11/25 04:23:42;;;;;;;10.13;8.10;;;;;;;;;;5012382;28;20222;-79
2022/11/25 04:26:09;;;;;;;17.07;7.73;;;;;;;;;;5017254;28;20241;-79
2022/11/25 04:28:36;;;;;;;12.50;7.23;;;;;;;;;;5012073;28;20222;-79
2022/11/25 04:31:06;;;;;;;13.73;7.23;;;;;;;;;;5009734;28;20707;-80
2022/11/25 04:33:33;;;;;;;12.53;7.53;;;;;;;;;;5006218;28;20217;-80
2022/11/25 04:36:00;;;;;;;11.37;8.00;;;;;;;;;;5004076;28;20242;-80
2022/11/25 04:38:27;;;;;;;38.50;18.73;;;;;;;;;;5011725;28;20560;-82
2022/11/25 04:40:56;;;;;;;41.20;21.97;;;;;;;;;;5010681;28;20249;-82
2022/11/25 04:43:23;;;;;;;26.83;13.93;;;;;;;;;;4998230;28;20303;-82
2022/11/25 04:45:50;;;;;;;30.93;17.47;;;;;;;;;;4992240;28;20240;-82
2022/11/25 04:48:18;;;;;;;34.30;15.87;;;;;;;;;;4992485;28;20208;-81
2022/11/25 04:50:45;;;;;;;23.97;13.40;;;;;;;;;;5011896;28;20235;-80
2022/11/25 04:53:12;;;;;;;17.60;9.40;;;;;;;;;;5011967;28;20218;-80
2022/11/25 04:55:39;;;;;;;9.57;6.20;;;;;;;;;;4996897;28;20598;-80
2022/11/25 04:58:08;;;;;;;12.00;7.57;;;;;;;;;;5004416;28;20249;-80
2022/11/25 05:00:36;;;;;;;9.90;7.33;;;;;;;;;;5012904;28;20609;-79
2022/11/25 05:03:03;;;;;;;13.00;7.23;;;;;;;;;;5012366;28;20293;-80
2022/11/25 05:05:30;;;;;;;16.73;7.27;;;;;;;;;;5010906;28;20246;-80
2022/11/25 05:07:57;;;;;;;12.07;7.50;;;;;;;;;;5000074;28;20231;-80
2022/11/25 05:10:24;;;;;;;9.47;7.17;;;;;;;;;;4994280;28;20238;-80
2022/11/25 05:12:52;;;;;;;13.67;7.07;;;;;;;;;;5010999;28;20206;-80
2022/11/25 05:15:20;;;;;;;10.73;6.83;;;;;;;;;;5009675;28;20227;-80
2022/11/25 05:17:47;;;;;;;16.23;7.60;;;;;;;;;;5011887;28;20703;-80
2022/11/25 05:20:14;;;;;;;11.10;7.53;;;;;;;;;;5010953;28;20582;-80
2022/11/25 05:22:41;;;;;;;13.63;7.37;;;;;;;;;;5011230;28;20254;-80
2022/11/25 05:25:09;;;;;;;14.00;7.17;;;;;;;;;;5002531;28;20207;-80
2022/11/25 05:27:36;;;;;;;16.53;8.20;;;;;;;;;;5000673;28;20211;-79
2022/11/25 05:30:08;;;;;;;10.53;7.43;;;;;;;;;;5014020;28;20667;-81
2022/11/25 05:32:36;;;;;;;19.40;7.90;;;;;;;;;;5014129;28;20235;-80
2022/11/25 05:35:03;;;;;;;13.87;7.33;;;;;;;;;;5015663;28;20211;-81
2022/11/25 05:37:30;;;;;;;11.53;7.50;;;;;;;;;;5012103;28;20208;-79
2022/11/25 05:39:57;;;;;;;13.67;7.93;;;;;;;;;;5009580;28;20222;-79
2022/11/25 05:42:24;;;;;;;11.93;6.77;;;;;;;;;;5015174;28;20242;-79
2022/11/25 05:44:51;;;;;;;10.80;7.10;;;;;;;;;;5012503;28;20204;-80
2022/11/25 05:47:18;;;;;;;19.17;10.90;;;;;;;;;;5011034;28;20242;-80
2022/11/25 05:49:47;;;;;;;12.93;7.77;;;;;;;;;;4991859;28;20823;-80
2022/11/25 05:52:14;;;;;;;9.93;7.17;;;;;;;;;;4995480;28;20731;-80
2022/11/25 05:54:41;;;;;;;15.40;8.63;;;;;;;;;;5010165;28;20204;-79
2022/11/25 05:57:29;;;;;;;19.53;11.00;;;;;;;;;;4994970;28;20231;-80
2022/11/25 05:59:56;;;;;;;15.60;10.43;;;;;;;;;;5006003;28;20314;-80
2022/11/25 06:02:35;;;;;;;16.63;8.10;;;;;;;;;;5013676;28;20235;-81
2022/11/25 06:05:04;;;;;;;16.77;7.60;;;;;;;;;;5013462;28;20207;-80
2022/11/25 06:07:31;;;;;;;16.10;8.47;;;;;;;;;;4995008;28;20640;-78
2022/11/25 06:09:58;;;;;;;11.57;8.77;;;;;;;;;;5005020;28;20200;-79
2022/11/25 06:12:25;;;;;;;24.80;11.83;;;;;;;;;;5014359;28;20223;-77
2022/11/25 06:14:52;;;;;;;15.67;10.47;;;;;;;;;;5014495;28;20777;-78
2022/11/25 06:17:19;;;;;;;16.30;10.83;;;;;;;;;;5014090;28;20229;-78
2022/11/25 06:19:47;;;;;;;17.53;11.43;;;;;;;;;;5014435;28;20214;-77
2022/11/25 06:22:16;;;;;;;13.33;9.60;;;;;;;;;;5013929;28;20227;-77
2022/11/25 06:24:43;;;;;;;25.30;14.67;;;;;;;;;;5014546;28;20573;-76
2022/11/25 06:27:10;;;;;;;18.87;12.70;;;;;;;;;;5013832;28;20246;-77
2022/11/25 06:29:37;;;;;;;20.13;10.00;;;;;;;;;;5014025;28;20221;-77
2022/11/25 06:32:04;;;;;;;20.83;12.10;;;;;;;;;;5013555;28;20245;-77
2022/11/25 06:34:31;;;;;;;16.70;9.80;;;;;;;;;;5014172;28;20207;-76
2022/11/25 06:36:58;;;;;;;21.37;15.27;;;;;;;;;;5013856;28;20238;-77
2022/11/25 06:39:27;;;;;;;27.47;17.70;;;;;;;;;;5013865;28;20211;-77
2022/11/25 06:41:54;;;;;;;18.50;10.60;;;;;;;;;;5013523;28;20243;-77
2022/11/25 06:44:21;;;;;;;13.50;8.53;;;;;;;;;;5014009;28;20215;-77
2022/11/25 06:46:48;;;;;;;13.40;9.77;;;;;;;;;;5013149;28;20238;-77
2022/11/25 06:49:15;;;;;;;14.13;9.33;;;;;;;;;;5013802;28;20244;-77
2022/11/25 06:51:42;;;;;;;19.27;10.40;;;;;;;;;;5012217;28;20246;-77
2022/11/25 06:54:09;;;;;;;17.67;10.00;;;;;;;;;;5013476;28;20668;-76
2022/11/25 06:56:39;;;;;;;16.03;9.80;;;;;;;;;;5013044;28;20235;-77
2022/11/25 06:59:07;;;;;;;11.33;8.33;;;;;;;;;;5013564;28;20529;-77
2022/11/25 07:01:34;;;;;;;16.07;8.77;;;;;;;;;;5013311;28;20246;-78
2022/11/25 07:04:02;;;;;;;16.67;8.73;;;;;;;;;;5012795;28;20199;-78
2022/11/25 07:06:30;;;;;;;12.40;7.40;;;;;;;;;;5013090;28;20582;-78
2022/11/25 07:08:57;;;;;;;13.67;7.53;;;;;;;;;;5013425;28;20230;-77
2022/11/25 07:11:25;;;;;;;16.10;8.27;;;;;;;;;;5007779;28;20251;-78
2022/11/25 07:13:54;;;;;;;12.47;8.33;;;;;;;;;;5012124;28;20211;-77
2022/11/25 07:16:22;;;;;;;13.07;8.10;;;;;;;;;;5005877;28;20316;-78
2022/11/25 07:18:49;;;;;;;17.53;7.63;;;;;;;;;;5011883;28;20262;-77
2022/11/25 07:21:17;;;;;;;16.57;8.37;;;;;;;;;;5012358;28;20235;-77
2022/11/25 07:23:46;;;;;;;17.53;8.77;;;;;;;;;;5012813;28;20211;-77
2022/11/25 07:26:14;;;;;;;14.07;8.23;;;;;;;;;;5012297;28;20240;-77
2022/11/25 07:28:41;;;;;;;17.93;8.43;;;;;;;;;;5012661;28;20603;-77
2022/11/25 07:31:13;;;;;;;15.07;8.60;;;;;;;;;;5010959;28;20233;-77
2022/11/25 07:33:40;;;;;;;14.03;8.37;;;;;;;;;;5007913;28;20218;-77
2022/11/25 07:36:09;;;;;;;19.23;9.00;;;;;;;;;;5012382;28;20238;-77
2022/11/25 07:38:36;;;;;;;20.10;8.27;;;;;;;;;;5000906;28;20551;-77
2022/11/25 07:41:05;;;;;;;12.83;8.37;;;;;;;;;;5005208;28;20231;-78
2022/11/25 07:43:32;;;;;;;18.37;9.80;;;;;;;;;;5011587;28;20211;-77
2022/11/25 07:46:09;;;;;;;16.77;9.70;;;;;;;;;;5011959;28;20242;-77
2022/11/25 07:48:36;;;;;;;18.90;10.63;;;;;;;;;;5012146;28;20717;-77
2022/11/25 07:51:03;;;;;;;14.37;9.17;;;;;;;;;;5011922;28;20703;-77
2022/11/25 07:53:30;;;;;;;13.83;9.73;;;;;;;;;;5012090;28;20211;-77
2022/11/25 07:56:01;;;;;;;19.30;10.63;;;;;;;;;;5011231;28;20274;-77
2022/11/25 07:58:28;;;;;;;19.80;10.40;;;;;;;;;;5008674;28;20311;-76
2022/11/25 08:00:55;;;;;;;17.80;9.43;;;;;;;;;;5010196;28;20298;-77
2022/11/25 08:03:24;;;;;;;18.07;10.40;;;;;;;;;;5010908;28;20211;-77
2022/11/25 08:05:51;;;;;;;21.07;10.00;;;;;;;;;;5010811;28;20237;-77
2022/11/25 08:08:18;;;;;;;24.13;10.47;;;;;;;;;;5011808;28;20223;-77
2022/11/25 08:10:45;;;;;;;28.23;10.60;;;;;;;;;;5008665;28;20608;-78
2022/11/25 08:13:12;;;;;;;19.73;10.00;;;;;;;;;;5010967;28;20215;-76
2022/11/25 08:15:39;;;;;;;18.63;10.37;;;;;;;;;;5000565;28;20343;-77
2022/11/25 08:18:06;;;;;;;18.97;9.77;;;;;;;;;;5011883;28;20204;-77
2022/11/25 08:20:35;;;;;;;18.97;10.10;;;;;;;;;;5010550;28;20751;-77
2022/11/25 08:23:02;;;;;;;16.43;10.13;;;;;;;;;;5010996;28;20306;-77
2022/11/25 08:25:30;;;;;;;18.17;10.17;;;;;;;;;;5003603;28;20232;-77
2022/11/25 08:27:59;;;;;;;20.80;10.33;;;;;;;;;;5011267;28;20224;-77
2022/11/25 08:30:26;;;;;;;21.10;11.67;;;;;;;;;;5009800;28;20315;-77
2022/11/25 08:32:53;;;;;;;19.63;11.30;;;;;;;;;;5011324;28;20230;-77
2022/11/25 08:35:20;;;;;;;319.80;116.27;;;;;;;;;;5010755;28;20259;-78
2022/11/25 08:37:49;;;;;;;254.83;92.20;;;;;;;;;;5010834;28;20199;-77
2022/11/25 08:40:16;;;;;;;147.00;53.37;;;;;;;;;;5011045;28;20225;-77
2022/11/25 08:42:43;;;;;;;38.33;17.97;;;;;;;;;;5010749;28;20243;-76
2022/11/25 08:45:11;;;;;;;56.63;25.50;;;;;;;;;;5010693;28;20207;-77
2022/11/25 08:47:38;;;;;;;19.70;10.70;;;;;;;;;;5011376;28;20263;-77
2022/11/25 08:50:07;;;;;;;20.00;10.87;;;;;;;;;;5010704;28;20832;-77
2022/11/25 08:52:34;;;;;;;14.10;8.63;;;;;;;;;;5010187;28;20221;-77
2022/11/25 08:55:02;;;;;;;16.90;10.27;;;;;;;;;;5011243;28;20207;-78
2022/11/25 08:57:29;;;;;;;23.63;13.07;;;;;;;;;;5011208;28;20213;-77
2022/11/25 08:59:56;;;;;;;34.10;14.00;;;;;;;;;;5011091;28;20216;-77
2022/11/25 09:02:23;;;;;;;22.13;12.27;;;;;;;;;;5011066;28;20564;-77
2022/11/25 09:04:51;;;;;;;13.10;6.60;;;;;;;;;;5011331;28;20212;-77
2022/11/25 09:07:18;;;;;;;17.17;8.20;;;;;;;;;;5010911;28;20601;-77
2022/11/25 09:09:45;;;;;;;24.17;8.53;;;;;;;;;;5011141;28;20677;-76
2022/11/25 09:12:13;;;;;;;9.23;6.87;;;;;;;;;;5010704;28;20245;-77
2022/11/25 09:14:40;;;;;;;12.47;7.40;;;;;;;;;;5010919;28;20240;-77
2022/11/25 09:17:09;;;;;;;14.27;6.80;;;;;;;;;;5010653;28;20265;-77
2022/11/25 09:19:36;;;;;;;16.87;8.37;;;;;;;;;;5010190;28;20234;-77
2022/11/25 09:22:03;;;;;;;22.53;11.80;;;;;;;;;;5010421;28;20746;-77
2022/11/25 09:24:30;;;;;;;26.07;13.77;;;;;;;;;;5011213;28;20214;-77
2022/11/25 09:26:57;;;;;;;25.20;12.30;;;;;;;;;;5010483;28;20234;-77
2022/11/25 09:29:26;;;;;;;23.57;10.80;;;;;;;;;;5014766;28;20221;-77
2022/11/25 09:31:53;;;;;;;18.40;10.93;;;;;;;;;;5014284;28;20242;-77
2022/11/25 09:34:20;;;;;;;23.10;11.50;;;;;;;;;;5014800;28;20574;-77
2022/11/25 09:36:48;;;;;;;22.40;11.10;;;;;;;;;;5008106;28;20642;-77
2022/11/25 09:39:15;;;;;;;19.03;9.40;;;;;;;;;;5014648;28;20729;-76
2022/11/25 09:47:34;;;;;;;16.40;8.27;;;;;;;;;;5014449;28;20741;-78
2022/11/25 09:50:05;;;;;;;20.17;9.77;;;;;;;;;;5014050;28;20219;-78
2022/11/25 09:52:36;;;;;;;22.33;12.20;;;;;;;;;;5014636;28;20234;-77
2022/11/25 09:55:05;;;;;;;18.53;10.57;;;;;;;;;;5014369;28;20214;-79
2022/11/25 09:57:43;;;;;;;20.10;7.90;;;;;;;;;;5014346;28;20218;-79
2022/11/25 10:00:13;;;;;;;11.20;6.50;;;;;;;;;;5014010;28;20218;-78
2022/11/25 10:02:42;;;;;;;10.53;4.60;;;;;;;;;;5013747;28;20224;-77
2022/11/25 10:05:13;;;;;;;8.27;5.03;;;;;;;;;;5013808;28;20565;-77
2022/11/25 10:07:41;;;;;;;10.00;5.03;;;;;;;;;;5014223;28;20237;-78
2022/11/25 10:10:15;;;;;;;14.93;6.03;;;;;;;;;;5014021;28;20203;-79
2022/11/25 10:12:45;;;;;;;12.33;5.33;;;;;;;;;;5013936;28;20707;-77
2022/11/25 10:15:17;;;;;;;7.57;4.13;;;;;;;;;;5013344;28;20204;-79
2022/11/25 10:17:48;;;;;;;12.83;4.73;;;;;;;;;;5014049;28;20203;-77
2022/11/25 10:20:18;;;;;;;8.00;4.10;;;;;;;;;;5013647;28;20210;-79
2022/11/25 10:22:47;;;;;;;18.40;7.10;;;;;;;;;;5014178;28;20227;-78
2022/11/25 10:25:16;;;;;;;7.03;5.27;;;;;;;;;;5013424;28;20747;-78
2022/11/25 10:27:45;;;;;;;16.40;6.73;;;;;;;;;;5013745;28;20227;-78
2022/11/25 10:30:17;;;;;;;12.83;6.20;;;;;;;;;;5013305;28;20219;-77
2022/11/25 10:32:47;;;;;;;11.13;5.37;;;;;;;;;;5013662;28;20759;-83
2022/11/25 10:35:19;;;;;;;12.43;4.73;;;;;;;;;;5013418;28;20315;-84
2022/11/25 10:37:48;;;;;;;10.00;5.73;;;;;;;;;;5010302;28;20188;-85
2022/11/25 10:40:16;;;;;;;9.50;5.30;;;;;;;;;;4993317;28;20208;-84
2022/11/25 10:42:43;;;;;;;13.20;5.90;;;;;;;;;;4993857;28;20759;-83
2022/11/25 10:45:11;;;;;;;13.50;6.90;;;;;;;;;;5007378;28;20203;-85
2022/11/25 10:47:45;;;;;;;15.87;6.53;;;;;;;;;;5001352;28;20227;-85
2022/11/25 10:50:15;;;;;;;13.87;4.93;;;;;;;;;;4994077;28;20559;-85
2022/11/25 10:52:47;;;;;;;11.20;6.10;;;;;;;;;;4994436;28;20322;-85
2022/11/25 10:55:15;;;;;;;9.83;5.57;;;;;;;;;;4993635;28;20207;-84
2022/11/25 10:57:42;;;;;;;13.47;5.77;;;;;;;;;;4993887;28;20687;-84
2022/11/25 11:00:25;;;;;;;12.63;5.97;;;;;;;;;;4993812;28;20262;-84
2022/11/25 11:02:54;;;;;;;11.63;5.03;;;;;;;;;;4994177;28;20232;-84
2022/11/25 11:05:24;;;;;;;12.90;6.27;;;;;;;;;;5007221;28;20239;-85
2022/11/25 11:08:08;;;;;;;12.27;6.27;;;;;;;;;;5013390;28;20233;-84
2022/11/25 11:10:35;;;;;;;12.70;6.07;;;;;;;;;;5013045;28;20735;-85
2022/11/25 11:13:04;;;;;;;11.70;6.70;;;;;;;;;;5013184;28;20306;-84
2022/11/25 11:15:32;;;;;;;12.97;7.23;;;;;;;;;;5012858;28;20246;-84
2022/11/25 11:18:14;;;;;;;12.20;6.60;;;;;;;;;;5013297;28;20207;-85
2022/11/25 11:20:45;;;;;;;8.97;4.97;;;;;;;;;;5000803;28;20286;-84
2022/11/25 11:23:14;;;;;;;10.03;4.97;;;;;;;;;;4993494;28;20669;-85
2022/11/25 11:25:42;;;;;;;6.80;4.93;;;;;;;;;;4993871;28;20739;-85
2022/11/25 11:28:24;;;;;;;8.17;4.60;;;;;;;;;;5005552;28;20235;-85
2022/11/25 11:30:55;;;;;;;8.83;4.20;;;;;;;;;;5012615;28;20239;-85
2022/11/25 11:33:30;;;;;;;7.83;4.10;;;;;;;;;;5012772;28;20192;-85
2022/11/25 11:36:01;;;;;;;7.90;5.20;;;;;;;;;;5012748;28;20231;-84
2022/11/25 11:38:32;;;;;;;7.03;3.53;;;;;;;;;;5012877;28;20187;-84
2022/11/25 11:41:06;;;;;;;5.53;3.80;;;;;;;;;;5012411;28;20243;-85
2022/11/25 11:43:47;;;;;;;6.07;3.77;;;;;;;;;;5012716;28;20241;-84
2022/11/25 11:46:21;;;;;;;7.43;3.93;;;;;;;;;;5012050;28;20931;-85
2022/11/25 11:48:55;;;;;;;8.93;4.37;;;;;;;;;;5012432;28;20250;-85
2022/11/25 11:51:26;;;;;;;6.13;3.90;;;;;;;;;;5011907;28;20615;-84
2022/11/25 11:54:00;;;;;;;6.40;3.30;;;;;;;;;;5012842;28;20206;-84
2022/11/25 11:56:32;;;;;;;5.73;3.53;;;;;;;;;;5012110;28;20254;-85
2022/11/25 11:59:06;;;;;;;3.50;3.10;;;;;;;;;;5012227;28;20672;-85
2022/11/25 12:01:38;;;;;;;6.77;3.77;;;;;;;;;;5011194;28;20254;-85
2022/11/25 12:04:15;;;;;;;5.30;3.67;;;;;;;;;;5012293;28;20191;-85
2022/11/25 12:06:43;;;;;;;4.90;3.83;;;;;;;;;;5010450;28;20234;-85
2022/11/25 12:09:13;;;;;;;9.67;4.30;;;;;;;;;;5011256;28;20584;-84
2022/11/25 12:11:42;;;;;;;6.00;3.70;;;;;;;;;;4992046;28;20926;-84
2022/11/25 12:14:12;;;;;;;6.17;3.67;;;;;;;;;;4993203;28;20637;-84
2022/11/25 12:16:43;;;;;;;4.90;4.00;;;;;;;;;;4997605;28;20231;-84
2022/11/25 12:19:15;;;;;;;6.00;3.90;;;;;;;;;;5011833;28;20207;-85
2022/11/25 12:21:46;;;;;;;5.03;3.30;;;;;;;;;;5011581;28;20888;-84
2022/11/25 12:24:17;;;;;;;8.17;3.97;;;;;;;;;;5012072;28;20195;-85
2022/11/25 12:26:48;;;;;;;5.80;3.87;;;;;;;;;;5011678;28;20238;-84
2022/11/25 12:29:18;;;;;;;7.33;3.80;;;;;;;;;;5011414;28;20238;-85
2022/11/25 12:31:48;;;;;;;4.60;3.83;;;;;;;;;;5011324;28;20312;-84
2022/11/25 12:34:20;;;;;;;9.43;3.97;;;;;;;;;;5011636;28;20199;-84
2022/11/25 12:36:47;;;;;;;11.63;3.90;;;;;;;;;;5011352;28;20235;-84
2022/11/25 12:39:19;;;;;;;7.67;4.03;;;;;;;;;;5011542;28;20199;-83
2022/11/25 12:41:50;;;;;;;8.27;4.80;;;;;;;;;;5011309;28;20246;-84
2022/11/25 12:44:19;;;;;;;10.40;4.43;;;;;;;;;;5009894;28;20196;-85
2022/11/25 12:46:48;;;;;;;11.13;5.40;;;;;;;;;;5011334;28;20231;-85
2022/11/25 12:49:19;;;;;;;10.57;5.27;;;;;;;;;;5011165;28;20745;-84
2022/11/25 12:52:06;;;;;;;7.50;4.30;;;;;;;;;;5011278;28;20620;-84
2022/11/25 12:54:41;;;;;;;12.40;6.13;;;;;;;;;;5008060;28;20762;-85
2022/11/25 12:57:36;;;;;;;11.23;4.40;;;;;;;;;;5011173;28;20234;-85
2022/11/25 13:00:09;;;;;;;6.37;4.40;;;;;;;;;;4991204;28;20199;-84
2022/11/25 13:02:47;;;;;;;8.33;4.60;;;;;;;;;;5009379;28;20278;-85
2022/11/25 13:05:26;;;;;;;10.00;4.73;;;;;;;;;;5010492;28;20298;-85
2022/11/25 13:07:57;;;;;;;11.77;4.20;;;;;;;;;;4994717;28;20227;-85
2022/11/25 13:10:39;;;;;;;6.77;3.70;;;;;;;;;;5010893;28;20572;-85
2022/11/25 13:13:33;;;;;;;11.33;4.43;;;;;;;;;;5009992;28;20588;-85
2022/11/25 13:16:02;;;;;;;13.07;4.20;;;;;;;;;;4987031;28;20617;-85
2022/11/25 13:18:32;;;;;;;8.60;4.37;;;;;;;;;;5011373;28;20192;-84
2022/11/25 13:21:06;;;;;;;8.20;4.17;;;;;;;;;;5007164;28;20250;-85
2022/11/25 13:23:42;;;;;;;7.17;4.23;;;;;;;;;;5005507;28;20208;-84
2022/11/25 13:26:27;;;;;;;9.80;4.80;;;;;;;;;;4991126;28;20235;-84
2022/11/25 13:28:54;;;;;;;7.43;4.30;;;;;;;;;;5002039;28;20214;-85
2022/11/25 13:31:23;;;;;;;9.20;4.20;;;;;;;;;;5010354;28;20238;-85
2022/11/25 13:33:59;;;;;;;8.10;4.10;;;;;;;;;;5002202;28;20350;-84
2022/11/25 13:36:43;;;;;;;13.50;6.83;;;;;;;;;;4991333;28;20242;-84
2022/11/25 13:39:14;;;;;;;7.47;4.40;;;;;;;;;;4991688;28;20553;-85
2022/11/25 13:41:48;;;;;;;9.13;3.93;;;;;;;;;;4991213;28;20239;-84
2022/11/25 13:44:20;;;;;;;8.07;3.70;;;;;;;;;;5001899;28;20213;-85
2022/11/25 13:46:50;;;;;;;9.83;3.97;;;;;;;;;;5010726;28;20231;-93
2022/11/25 13:49:22;;;;;;;8.43;4.10;;;;;;;;;;5002298;28;20247;-88
2022/11/25 13:51:51;;;;;;;7.90;4.13;;;;;;;;;;4991720;28;20591;-85
2022/11/25 13:54:22;;;;;;;7.03;3.83;;;;;;;;;;4993594;28;20785;-86
2022/11/25 13:56:58;;;;;;;7.77;3.50;;;;;;;;;;5009996;28;20239;-87
2022/11/25 13:59:36;;;;;;;8.37;4.20;;;;;;;;;;4991129;28;20208;-86
2022/11/25 14:02:21;;;;;;;5.90;3.60;;;;;;;;;;5002879;28;20239;-86
2022/11/25 14:04:52;;;;;;;8.73;3.60;;;;;;;;;;5008067;28;20587;-86
2022/11/25 14:07:27;;;;;;;8.90;3.47;;;;;;;;;;5008234;28;20239;-86
2022/11/25 14:10:03;;;;;;;10.27;4.03;;;;;;;;;;5006582;28;20203;-85
2022/11/25 14:12:34;;;;;;;6.83;4.63;;;;;;;;;;5011483;28;20699;-85
2022/11/25 14:15:04;;;;;;;5.90;4.00;;;;;;;;;;5014389;28;20211;-85
2022/11/25 14:17:44;;;;;;;9.80;4.83;;;;;;;;;;5014117;28;20235;-85
2022/11/25 14:20:26;;;;;;;8.53;4.57;;;;;;;;;;5014020;28;20619;-85
2022/11/25 14:23:12;;;;;;;6.13;3.57;;;;;;;;;;5014222;28;20227;-85
2022/11/25 14:25:45;;;;;;;10.33;4.03;;;;;;;;;;5013963;28;20246;-84
2022/11/25 14:28:20;;;;;;;9.43;4.23;;;;;;;;;;5013852;28;20688;-84
2022/11/25 14:30:50;;;;;;;8.93;4.30;;;;;;;;;;5013800;28;20362;-84
2022/11/25 14:33:19;;;;;;;8.93;3.87;;;;;;;;;;5003698;28;20204;-85
2022/11/25 14:35:49;;;;;;;8.23;4.13;;;;;;;;;;4994649;28;20238;-85
2022/11/25 14:38:19;;;;;;;6.77;3.40;;;;;;;;;;4994548;28;20192;-84
2022/11/25 14:40:50;;;;;;;6.00;4.03;;;;;;;;;;4994552;28;20228;-86
2022/11/25 14:43:21;;;;;;;8.90;4.23;;;;;;;;;;5002212;28;20203;-84
2022/11/25 14:45:48;;;;;;;11.00;4.23;;;;;;;;;;5005958;28;20240;-84
2022/11/25 14:48:16;;;;;;;6.60;4.17;;;;;;;;;;4994288;28;20745;-85
2022/11/25 14:50:55;;;;;;;7.97;4.40;;;;;;;;;;4993976;28;20235;-84
2022/11/25 14:53:24;;;;;;;11.43;5.60;;;;;;;;;;4994027;28;20211;-84
2022/11/25 14:55:51;;;;;;;9.87;4.50;;;;;;;;;;4993603;28;20247;-84